sensor_id;sensor_type;location;lat;lon;timestamp;pressure;altitude;pressure_sealevel;temperature;humidity
48553;BME280;34335;51.566;6.994;2023-03-18T00:01:50;100245.16;;;11.23;100.00
48553;BME280;34335;51.566;6.994;2023-03-18T00:04:15;100246.88;;;11.25;100.00
48553;BME280;34335;51.566;6.994;2023-03-18T00:06:41;100246.91;;;11.21;100.00
48553;BME280;34335;51.566;6.994;2023-03-18T00:09:08;100249.47;;;11.26;100.00
48553;BME280;34335;51.566;6.994;2023-03-18T00:11:35;100252.97;;;11.25;100.00
48553;BME280;34335;51.566;6.994;2023-03-18T00:14:01;100247.75;;;11.27;100.00
48553;BME280;34335;51.566;6.994;2023-03-18T00:16:27;100243.41;;;11.26;100.00
48553;BME280;34335;51.566;6.994;2023-03-18T00:18:52;100242.63;;;11.20;100.00
48553;BME280;34335;51.566;6.994;2023-03-18T00:21:18;100238.19;;;11.27;100.00
48553;BME280;34335;51.566;6.994;2023-03-18T00:23:43;100237.34;;;11.25;100.00
48553;BME280;34335;51.566;6.994;2023-03-18T00:26:09;100235.69;;;11.19;100.00
48553;BME280;34335;51.566;6.994;2023-03-18T00:28:35;100239.94;;;11.27;100.00
48553;BME280;34335;51.566;6.994;2023-03-18T00:31:09;100242.56;;;11.23;100.00
48553;BME280;34335;51.566;6.994;2023-03-18T00:33:36;100239.97;;;11.23;100.00
48553;BME280;34335;51.566;6.994;2023-03-18T00:36:04;100251.28;;;11.18;100.00
48553;BME280;34335;51.566;6.994;2023-03-18T00:38:30;100257.38;;;11.18;100.00
48553;BME280;34335;51.566;6.994;2023-03-18T00:40:56;100255.69;;;11.11;100.00
48553;BME280;34335;51.566;6.994;2023-03-18T00:43:39;100257.38;;;11.18;100.00
48553;BME280;34335;51.566;6.994;2023-03-18T00:46:16;100256.59;;;11.09;100.00
48553;BME280;34335;51.566;6.994;2023-03-18T00:48:43;100266.97;;;11.13;100.00
48553;BME280;34335;51.566;6.994;2023-03-18T00:51:09;100267.00;;;11.09;100.00
48553;BME280;34335;51.566;6.994;2023-03-18T00:53:39;100255.69;;;11.11;100.00
48553;BME280;34335;51.566;6.994;2023-03-18T00:56:05;100260.06;;;11.11;100.00
48553;BME280;34335;51.566;6.994;2023-03-18T00:58:30;100261.84;;;11.05;100.00
48553;BME280;34335;51.566;6.994;2023-03-18T01:00:55;100255.78;;;11.05;100.00
48553;BME280;34335;51.566;6.994;2023-03-18T01:03:21;100254.91;;;11.04;100.00
48553;BME280;34335;51.566;6.994;2023-03-18T01:05:50;100248.84;;;11.04;100.00
48553;BME280;34335;51.566;6.994;2023-03-18T01:08:15;100241.97;;;10.97;100.00
48553;BME280;34335;51.566;6.994;2023-03-18T01:10:41;100246.28;;;11.01;100.00
48553;BME280;34335;51.566;6.994;2023-03-18T01:13:06;100244.63;;;10.92;100.00
48553;BME280;34335;51.566;6.994;2023-03-18T01:15:32;100250.72;;;10.91;100.00
48553;BME280;34335;51.566;6.994;2023-03-18T01:17:57;100248.06;;;10.93;100.00
48553;BME280;34335;51.566;6.994;2023-03-18T01:20:24;100243.78;;;10.91;100.00
48553;BME280;34335;51.566;6.994;2023-03-18T01:22:49;100243.81;;;10.85;100.00
48553;BME280;34335;51.566;6.994;2023-03-18T01:25:16;100254.25;;;10.81;100.00
48553;BME280;34335;51.566;6.994;2023-03-18T01:27:42;100249.03;;;10.85;100.00
48553;BME280;34335;51.566;6.994;2023-03-18T01:30:08;100260.38;;;10.75;100.00
48553;BME280;34335;51.566;6.994;2023-03-18T01:32:35;100257.78;;;10.75;100.00
48553;BME280;34335;51.566;6.994;2023-03-18T01:35:01;100256.03;;;10.77;100.00
48553;BME280;34335;51.566;6.994;2023-03-18T01:37:26;100252.56;;;10.75;100.00
48553;BME280;34335;51.566;6.994;2023-03-18T01:39:53;100252.56;;;10.78;100.00
48553;BME280;34335;51.566;6.994;2023-03-18T01:42:18;100249.03;;;10.82;100.00
48553;BME280;34335;51.566;6.994;2023-03-18T01:44:45;100249.03;;;10.85;100.00
48553;BME280;34335;51.566;6.994;2023-03-18T01:47:11;100249.03;;;10.85;100.00
48553;BME280;34335;51.566;6.994;2023-03-18T01:49:48;100262.94;;;10.80;100.00
48553;BME280;34335;51.566;6.994;2023-03-18T01:52:20;100259.44;;;10.85;100.00
48553;BME280;34335;51.566;6.994;2023-03-18T01:54:51;100255.00;;;10.95;100.00
48553;BME280;34335;51.566;6.994;2023-03-18T01:57:21;100268.94;;;10.89;100.00
48553;BME280;34335;51.566;6.994;2023-03-18T01:59:47;100264.53;;;10.95;100.00
48553;BME280;34335;51.566;6.994;2023-03-18T02:02:15;100262.72;;;11.03;100.00
48553;BME280;34335;51.566;6.994;2023-03-18T02:04:46;100273.19;;;10.97;100.00
48553;BME280;34335;51.566;6.994;2023-03-18T02:07:18;100270.59;;;11.00;100.00
48553;BME280;34335;51.566;6.994;2023-03-18T02:09:46;100273.19;;;11.00;100.00
48553;BME280;34335;51.566;6.994;2023-03-18T02:12:14;100271.38;;;11.08;100.00
48553;BME280;34335;51.566;6.994;2023-03-18T02:14:41;100268.81;;;11.00;100.00
48553;BME280;34335;51.566;6.994;2023-03-18T02:17:10;100264.53;;;10.98;100.00
48553;BME280;34335;51.566;6.994;2023-03-18T02:22:44;100255.94;;;10.89;100.00
48553;BME280;34335;51.566;6.994;2023-03-18T02:25:24;100255.94;;;10.86;100.00
48553;BME280;34335;51.566;6.994;2023-03-18T02:27:55;100256.88;;;10.81;100.00
48553;BME280;34335;51.566;6.994;2023-03-18T02:30:27;100249.91;;;10.84;100.00
48553;BME280;34335;51.566;6.994;2023-03-18T02:32:56;100258.44;;;10.99;100.00
48553;BME280;34335;51.566;6.994;2023-03-18T02:35:24;100255.88;;;10.96;100.00
48553;BME280;34335;51.566;6.994;2023-03-18T02:37:50;100262.88;;;10.87;100.00
48553;BME280;34335;51.566;6.994;2023-03-18T02:40:19;100267.25;;;10.82;100.00
48553;BME280;34335;51.566;6.994;2023-03-18T02:42:46;100269.84;;;10.82;100.00
48553;BME280;34335;51.566;6.994;2023-03-18T02:45:44;100266.44;;;10.77;100.00
48553;BME280;34335;51.566;6.994;2023-03-18T02:48:16;100274.31;;;10.68;100.00
48553;BME280;34335;51.566;6.994;2023-03-18T02:50:42;100276.91;;;10.71;100.00
48553;BME280;34335;51.566;6.994;2023-03-18T02:53:11;100265.63;;;10.70;100.00
48553;BME280;34335;51.566;6.994;2023-03-18T02:55:36;100257.88;;;10.66;100.00
48553;BME280;34335;51.566;6.994;2023-03-18T02:58:02;100265.69;;;10.64;100.00
48553;BME280;34335;51.566;6.994;2023-03-18T03:00:27;100260.50;;;10.63;100.00
48553;BME280;34335;51.566;6.994;2023-03-18T03:02:53;100261.47;;;10.49;100.00
48553;BME280;34335;51.566;6.994;2023-03-18T03:05:18;100266.66;;;10.49;100.00
48553;BME280;34335;51.566;6.994;2023-03-18T03:07:44;100273.66;;;10.41;100.00
48553;BME280;34335;51.566;6.994;2023-03-18T03:10:10;100275.38;;;10.36;100.00
48553;BME280;34335;51.566;6.994;2023-03-18T03:12:36;100279.72;;;10.43;100.00
48553;BME280;34335;51.566;6.994;2023-03-18T03:15:03;100279.72;;;10.41;100.00
48553;BME280;34335;51.566;6.994;2023-03-18T03:17:29;100290.13;;;10.35;100.00
48553;BME280;34335;51.566;6.994;2023-03-18T03:19:54;100282.38;;;10.31;100.00
48553;BME280;34335;51.566;6.994;2023-03-18T03:22:20;100290.16;;;10.31;100.00
48553;BME280;34335;51.566;6.994;2023-03-18T03:24:45;100297.06;;;10.38;100.00
48553;BME280;34335;51.566;6.994;2023-03-18T03:27:11;100283.19;;;10.36;100.00
48553;BME280;34335;51.566;6.994;2023-03-18T03:29:37;100288.41;;;10.42;100.00
48553;BME280;34335;51.566;6.994;2023-03-18T03:32:03;100289.22;;;10.44;100.00
48553;BME280;34335;51.566;6.994;2023-03-18T03:34:28;100290.13;;;10.40;100.00
48553;BME280;34335;51.566;6.994;2023-03-18T03:36:53;100292.69;;;10.46;100.00
48553;BME280;34335;51.566;6.994;2023-03-18T03:39:19;100295.31;;;10.37;100.00
48553;BME280;34335;51.566;6.994;2023-03-18T03:41:44;100291.84;;;10.46;100.00
48553;BME280;34335;51.566;6.994;2023-03-18T03:44:09;100280.53;;;10.48;100.00
48553;BME280;34335;51.566;6.994;2023-03-18T03:46:35;100283.94;;;10.53;100.00
48553;BME280;34335;51.566;6.994;2023-03-18T03:49:00;100285.75;;;10.48;100.00
48553;BME280;34335;51.566;6.994;2023-03-18T03:51:26;100291.00;;;10.42;100.00
48553;BME280;34335;51.566;6.994;2023-03-18T03:53:52;100289.22;;;10.47;100.00
48553;BME280;34335;51.566;6.994;2023-03-18T03:56:18;100300.50;;;10.44;100.00
48553;BME280;34335;51.566;6.994;2023-03-18T03:58:43;100294.34;;;10.53;100.00
48553;BME280;34335;51.566;6.994;2023-03-18T04:01:10;100309.94;;;10.56;100.00
48553;BME280;34335;51.566;6.994;2023-03-18T04:03:35;100303.06;;;10.52;100.00
48553;BME280;34335;51.566;6.994;2023-03-18T04:06:01;100310.00;;;10.50;100.00
48553;BME280;34335;51.566;6.994;2023-03-18T04:08:26;100307.34;;;10.58;100.00
48553;BME280;34335;51.566;6.994;2023-03-18T04:10:51;100310.78;;;10.60;100.00
48553;BME280;34335;51.566;6.994;2023-03-18T04:13:17;100309.16;;;10.47;100.00
48553;BME280;34335;51.566;6.994;2023-03-18T04:15:42;100316.03;;;10.51;100.00
48553;BME280;34335;51.566;6.994;2023-03-18T04:18:08;100317.81;;;10.47;100.00
48553;BME280;34335;51.566;6.994;2023-03-18T04:20:34;100316.91;;;10.56;100.00
48553;BME280;34335;51.566;6.994;2023-03-18T04:23:00;100320.34;;;10.53;100.00
48553;BME280;34335;51.566;6.994;2023-03-18T04:25:25;100324.72;;;10.51;100.00
48553;BME280;34335;51.566;6.994;2023-03-18T04:27:51;100325.59;;;10.50;100.00
48553;BME280;34335;51.566;6.994;2023-03-18T04:30:19;100323.88;;;10.46;100.00
48553;BME280;34335;51.566;6.994;2023-03-18T04:32:47;100330.00;;;10.39;100.00
48553;BME280;34335;51.566;6.994;2023-03-18T04:35:12;100330.84;;;10.35;100.00
48553;BME280;34335;51.566;6.994;2023-03-18T04:37:38;100336.03;;;10.46;100.00
48553;BME280;34335;51.566;6.994;2023-03-18T04:40:04;100331.66;;;10.49;100.00
48553;BME280;34335;51.566;6.994;2023-03-18T04:42:30;100328.22;;;10.47;100.00
48553;BME280;34335;51.566;6.994;2023-03-18T04:44:55;100331.75;;;10.38;100.00
48553;BME280;34335;51.566;6.994;2023-03-18T04:47:21;100336.00;;;10.50;100.00
48553;BME280;34335;51.566;6.994;2023-03-18T04:49:47;100336.06;;;10.38;100.00
48553;BME280;34335;51.566;6.994;2023-03-18T04:52:12;100344.75;;;10.31;100.00
48553;BME280;34335;51.566;6.994;2023-03-18T04:54:37;100343.91;;;10.24;100.00
48553;BME280;34335;51.566;6.994;2023-03-18T04:57:03;100341.28;;;10.28;100.00
48553;BME280;34335;51.566;6.994;2023-03-18T04:59:30;100341.25;;;10.35;100.00
48553;BME280;34335;51.566;6.994;2023-03-18T05:01:56;100343.00;;;10.42;100.00
48553;BME280;34335;51.566;6.994;2023-03-18T05:04:21;100344.69;;;10.48;100.00
48553;BME280;34335;51.566;6.994;2023-03-18T05:06:47;100342.97;;;10.40;100.00
48553;BME280;34335;51.566;6.994;2023-03-18T05:09:13;100346.38;;;10.49;100.00
48553;BME280;34335;51.566;6.994;2023-03-18T05:11:38;100355.06;;;10.46;100.00
48553;BME280;34335;51.566;6.994;2023-03-18T05:14:03;100345.56;;;10.43;100.00
48553;BME280;34335;51.566;6.994;2023-03-18T05:16:29;100351.66;;;10.41;100.00
48553;BME280;34335;51.566;6.994;2023-03-18T05:18:54;100354.22;;;10.35;100.00
48553;BME280;34335;51.566;6.994;2023-03-18T05:21:19;100359.44;;;10.46;100.00
48553;BME280;34335;51.566;6.994;2023-03-18T05:23:45;100356.00;;;10.39;100.00
48553;BME280;34335;51.566;6.994;2023-03-18T05:26:10;100352.50;;;10.37;100.00
48553;BME280;34335;51.566;6.994;2023-03-18T05:28:36;100355.09;;;10.41;100.00
48553;BME280;34335;51.566;6.994;2023-03-18T05:31:02;100357.72;;;10.40;100.00
48553;BME280;34335;51.566;6.994;2023-03-18T05:33:28;100349.94;;;10.40;100.00
48553;BME280;34335;51.566;6.994;2023-03-18T05:35:53;100362.91;;;10.37;100.00
48553;BME280;34335;51.566;6.994;2023-03-18T05:38:19;100365.50;;;10.35;100.00
48553;BME280;34335;51.566;6.994;2023-03-18T05:40:44;100367.25;;;10.41;100.00
48553;BME280;34335;51.566;6.994;2023-03-18T05:43:10;100361.19;;;10.34;100.00
48553;BME280;34335;51.566;6.994;2023-03-18T05:45:36;100369.00;;;10.39;100.00
48553;BME280;34335;51.566;6.994;2023-03-18T05:48:01;100358.59;;;10.33;100.00
48553;BME280;34335;51.566;6.994;2023-03-18T05:50:31;100363.78;;;10.40;100.00
48553;BME280;34335;51.566;6.994;2023-03-18T05:52:57;100366.38;;;10.40;100.00
48553;BME280;34335;51.566;6.994;2023-03-18T05:55:23;100374.13;;;10.48;100.00
48553;BME280;34335;51.566;6.994;2023-03-18T05:57:48;100376.78;;;10.39;100.00
48553;BME280;34335;51.566;6.994;2023-03-18T06:00:14;100383.72;;;10.34;100.00
48553;BME280;34335;51.566;6.994;2023-03-18T06:02:40;100384.56;;;10.36;100.00
48553;BME280;34335;51.566;6.994;2023-03-18T06:05:06;100387.19;;;10.34;100.00
48553;BME280;34335;51.566;6.994;2023-03-18T06:07:31;100390.63;;;10.39;100.00
48553;BME280;34335;51.566;6.994;2023-03-18T06:09:57;100391.50;;;10.35;100.00
48553;BME280;34335;51.566;6.994;2023-03-18T06:12:22;100389.78;;;10.42;100.00
48553;BME280;34335;51.566;6.994;2023-03-18T06:14:51;100391.50;;;10.35;100.00
48553;BME280;34335;51.566;6.994;2023-03-18T06:17:16;100393.22;;;10.35;100.00
48553;BME280;34335;51.566;6.994;2023-03-18T06:19:42;100398.44;;;10.35;100.00
48553;BME280;34335;51.566;6.994;2023-03-18T06:22:09;100392.41;;;10.37;100.00
48553;BME280;34335;51.566;6.994;2023-03-18T06:24:34;100389.81;;;10.37;100.00
48553;BME280;34335;51.566;6.994;2023-03-18T06:26:59;100388.03;;;10.41;100.00
48553;BME280;34335;51.566;6.994;2023-03-18T06:29:25;100394.09;;;10.35;100.00
48553;BME280;34335;51.566;6.994;2023-03-18T06:31:50;100406.25;;;10.36;100.00
48553;BME280;34335;51.566;6.994;2023-03-18T06:34:16;100408.84;;;10.38;100.00
48553;BME280;34335;51.566;6.994;2023-03-18T06:36:41;100413.19;;;10.37;100.00
48553;BME280;34335;51.566;6.994;2023-03-18T06:39:07;100412.31;;;10.40;100.00
48553;BME280;34335;51.566;6.994;2023-03-18T06:41:32;100407.06;;;10.52;100.00
48553;BME280;34335;51.566;6.994;2023-03-18T06:43:57;100415.75;;;10.47;100.00
48553;BME280;34335;51.566;6.994;2023-03-18T06:46:23;100418.34;;;10.43;100.00
48553;BME280;34335;51.566;6.994;2023-03-18T06:48:48;100420.09;;;10.48;100.00
48553;BME280;34335;51.566;6.994;2023-03-18T06:51:14;100420.91;;;10.50;100.00
48553;BME280;34335;51.566;6.994;2023-03-18T06:53:39;100426.13;;;10.51;100.00
48553;BME280;34335;51.566;6.994;2023-03-18T06:56:06;100438.25;;;10.49;100.00
48553;BME280;34335;51.566;6.994;2023-03-18T06:58:32;100444.34;;;10.47;100.00
48553;BME280;34335;51.566;6.994;2023-03-18T07:00:57;100432.19;;;10.49;100.00
48553;BME280;34335;51.566;6.994;2023-03-18T07:03:23;100425.22;;;10.58;100.00
48553;BME280;34335;51.566;6.994;2023-03-18T07:05:50;100432.13;;;10.63;100.00
48553;BME280;34335;51.566;6.994;2023-03-18T07:08:16;100429.53;;;10.59;100.00
48553;BME280;34335;51.566;6.994;2023-03-18T07:10:41;100433.03;;;10.55;100.00
48553;BME280;34335;51.566;6.994;2023-03-18T07:13:08;100430.44;;;10.54;100.00
48553;BME280;34335;51.566;6.994;2023-03-18T07:15:34;100429.50;;;10.66;100.00
48553;BME280;34335;51.566;6.994;2023-03-18T07:17:59;100429.53;;;10.59;100.00
48553;BME280;34335;51.566;6.994;2023-03-18T07:20:24;100437.38;;;10.58;100.00
48553;BME280;34335;51.566;6.994;2023-03-18T07:22:50;100432.97;;;10.71;100.00
48553;BME280;34335;51.566;6.994;2023-03-18T07:25:15;100443.25;;;10.83;100.00
48553;BME280;34335;51.566;6.994;2023-03-18T07:27:42;100448.41;;;10.93;100.00
48553;BME280;34335;51.566;6.994;2023-03-18T07:30:08;100443.22;;;10.91;100.00
48553;BME280;34335;51.566;6.994;2023-03-18T07:32:37;100451.88;;;10.95;100.00
48553;BME280;34335;51.566;6.994;2023-03-18T07:35:03;100446.66;;;10.98;100.00
48553;BME280;34335;51.566;6.994;2023-03-18T07:37:30;100456.94;;;11.16;100.00
48553;BME280;34335;51.566;6.994;2023-03-18T07:39:55;100454.34;;;11.16;100.00
48553;BME280;34335;51.566;6.994;2023-03-18T07:42:21;100455.94;;;11.34;100.00
48553;BME280;34335;51.566;6.994;2023-03-18T07:44:46;100449.84;;;11.34;100.00
48553;BME280;34335;51.566;6.994;2023-03-18T07:47:11;100451.47;;;11.49;100.00
48553;BME280;34335;51.566;6.994;2023-03-18T07:49:38;100456.56;;;11.61;100.00
48553;BME280;34335;51.566;6.994;2023-03-18T07:52:04;100457.41;;;11.65;100.00
48553;BME280;34335;51.566;6.994;2023-03-18T07:54:29;100456.38;;;11.78;100.00
48553;BME280;34335;51.566;6.994;2023-03-18T07:56:55;100457.16;;;11.88;100.00
48553;BME280;34335;51.566;6.994;2023-03-18T07:59:20;100463.28;;;11.85;100.00
48553;BME280;34335;51.566;6.994;2023-03-18T08:01:46;100468.50;;;11.85;100.00
48553;BME280;34335;51.566;6.994;2023-03-18T08:04:11;100471.16;;;11.78;100.00
48553;BME280;34335;51.566;6.994;2023-03-18T08:06:37;100466.81;;;11.78;100.00
48553;BME280;34335;51.566;6.994;2023-03-18T08:09:03;100469.41;;;11.78;100.00
48553;BME280;34335;51.566;6.994;2023-03-18T08:11:29;100470.25;;;11.80;100.00
48553;BME280;34335;51.566;6.994;2023-03-18T08:13:55;100471.09;;;11.84;100.00
48553;BME280;34335;51.566;6.994;2023-03-18T08:16:20;100471.00;;;11.93;100.00
48553;BME280;34335;51.566;6.994;2023-03-18T08:18:47;100472.88;;;11.80;100.00
48553;BME280;34335;51.566;6.994;2023-03-18T08:21:12;100478.03;;;11.87;100.00
48553;BME280;34335;51.566;6.994;2023-03-18T08:23:38;100482.34;;;11.92;100.00
48553;BME280;34335;51.566;6.994;2023-03-18T08:26:04;100491.84;;;11.95;100.00
48553;BME280;34335;51.566;6.994;2023-03-18T08:28:29;100489.22;;;11.98;100.00
48553;BME280;34335;51.566;6.994;2023-03-18T08:30:56;100487.34;;;12.12;100.00
48553;BME280;34335;51.566;6.994;2023-03-18T08:33:23;100494.28;;;12.17;100.00
48553;BME280;34335;51.566;6.994;2023-03-18T08:35:49;100494.31;;;12.13;100.00
48553;BME280;34335;51.566;6.994;2023-03-18T08:38:14;100494.28;;;12.17;100.00
48553;BME280;34335;51.566;6.994;2023-03-18T08:40:40;100500.22;;;12.28;100.00
48553;BME280;34335;51.566;6.994;2023-03-18T08:43:06;100502.00;;;12.26;100.00
48553;BME280;34335;51.566;6.994;2023-03-18T08:45:32;100508.88;;;12.30;100.00
48553;BME280;34335;51.566;6.994;2023-03-18T08:47:57;100506.47;;;12.14;100.00
48553;BME280;34335;51.566;6.994;2023-03-18T08:50:23;100513.41;;;12.15;100.00
48553;BME280;34335;51.566;6.994;2023-03-18T08:52:53;100509.81;;;12.26;100.00
48553;BME280;34335;51.566;6.994;2023-03-18T08:55:20;100506.00;;;12.55;100.00
48553;BME280;34335;51.566;6.994;2023-03-18T08:57:46;100508.38;;;12.72;100.00
48553;BME280;34335;51.566;6.994;2023-03-18T09:00:12;100521.06;;;13.01;100.00
48553;BME280;34335;51.566;6.994;2023-03-18T09:02:37;100518.66;;;12.84;100.00
48553;BME280;34335;51.566;6.994;2023-03-18T09:05:03;100522.06;;;12.91;100.00
48553;BME280;34335;51.566;6.994;2023-03-18T09:07:29;100512.25;;;13.08;100.00
48553;BME280;34335;51.566;6.994;2023-03-18T09:09:54;100511.03;;;13.31;100.00
48553;BME280;34335;51.566;6.994;2023-03-18T09:12:20;100519.03;;;13.22;100.00
48553;BME280;34335;51.566;6.994;2023-03-18T09:14:45;100523.59;;;13.06;100.00
48553;BME280;34335;51.566;6.994;2023-03-18T09:17:11;100520.84;;;13.14;100.00
48553;BME280;34335;51.566;6.994;2023-03-18T09:19:37;100523.19;;;13.34;100.00
48553;BME280;34335;51.566;6.994;2023-03-18T09:22:03;100518.19;;;13.18;100.00
48553;BME280;34335;51.566;6.994;2023-03-18T09:24:28;100512.81;;;13.28;100.00
48553;BME280;34335;51.566;6.994;2023-03-18T09:26:53;100512.88;;;13.24;100.00
48553;BME280;34335;51.566;6.994;2023-03-18T09:29:19;100519.38;;;13.56;100.00
48553;BME280;34335;51.566;6.994;2023-03-18T09:31:44;100516.91;;;13.49;100.00
48553;BME280;34335;51.566;6.994;2023-03-18T09:34:10;100519.00;;;13.78;100.00
48553;BME280;34335;51.566;6.994;2023-03-18T09:36:38;100520.28;;;13.54;100.00
48553;BME280;34335;51.566;6.994;2023-03-18T09:39:03;100504.03;;;13.88;100.00
48553;BME280;34335;51.566;6.994;2023-03-18T09:41:49;100513.03;;;13.71;100.00
48553;BME280;34335;51.566;6.994;2023-03-18T09:44:32;100515.22;;;13.45;100.00
48553;BME280;34335;51.566;6.994;2023-03-18T09:55:46;100517.06;;;13.36;100.00
48553;BME280;34335;51.566;6.994;2023-03-18T09:58:21;100520.28;;;13.54;100.00
48553;BME280;34335;51.566;6.994;2023-03-18T10:00:47;100527.00;;;13.70;100.00
48553;BME280;34335;51.566;6.994;2023-03-18T10:03:33;100517.06;;;13.90;100.00
48553;BME280;34335;51.566;6.994;2023-03-18T10:06:07;100522.06;;;14.03;100.00
48553;BME280;34335;51.566;6.994;2023-03-18T10:11:41;100529.56;;;14.69;100.00
48553;BME280;34335;51.566;6.994;2023-03-18T10:14:27;100528.28;;;14.87;100.00
48553;BME280;34335;51.566;6.994;2023-03-18T10:19:27;100535.31;;;14.41;100.00
48553;BME280;34335;51.566;6.994;2023-03-18T10:25:04;100523.03;;;14.87;100.00
48553;BME280;34335;51.566;6.994;2023-03-18T10:30:22;100525.59;;;14.46;100.00
48553;BME280;34335;51.566;6.994;2023-03-18T10:32:53;100527.41;;;14.43;100.00
48553;BME280;34335;51.566;6.994;2023-03-18T10:35:30;100518.47;;;14.09;100.00
48553;BME280;34335;51.566;6.994;2023-03-18T10:38:03;100520.00;;;14.67;100.00
48553;BME280;34335;51.566;6.994;2023-03-18T10:40:36;100521.81;;;14.61;100.00
48553;BME280;34335;51.566;6.994;2023-03-18T10:43:02;100516.41;;;15.11;100.00
48553;BME280;34335;51.566;6.994;2023-03-18T10:45:30;100509.13;;;15.61;100.00
48553;BME280;34335;51.566;6.994;2023-03-18T10:48:08;100514.44;;;15.57;100.00
48553;BME280;34335;51.566;6.994;2023-03-18T10:50:37;100506.94;;;15.43;100.00
48553;BME280;34335;51.566;6.994;2023-03-18T10:53:27;100514.22;;;15.31;100.00
48553;BME280;34335;51.566;6.994;2023-03-18T10:56:05;100522.84;;;15.72;100.00
48553;BME280;34335;51.566;6.994;2023-03-18T10:58:30;100522.09;;;15.31;100.00
48553;BME280;34335;51.566;6.994;2023-03-18T11:00:56;100520.03;;;15.43;100.00
48553;BME280;34335;51.566;6.994;2023-03-18T11:03:31;100524.34;;;15.81;100.00
48553;BME280;34335;51.566;6.994;2023-03-18T11:06:00;100510.91;;;15.95;100.00
48553;BME280;34335;51.566;6.994;2023-03-18T11:08:36;100517.59;;;15.72;100.00
48553;BME280;34335;51.566;6.994;2023-03-18T11:11:27;100509.63;;;15.77;100.00
48553;BME280;34335;51.566;6.994;2023-03-18T11:13:55;100494.03;;;16.05;100.00
48553;BME280;34335;51.566;6.994;2023-03-18T11:16:39;100492.56;;;15.95;100.00
48553;BME280;34335;51.566;6.994;2023-03-18T11:19:39;100489.41;;;17.06;100.00
48553;BME280;34335;51.566;6.994;2023-03-18T11:22:22;100492.97;;;17.04;100.00
48553;BME280;34335;51.566;6.994;2023-03-18T11:25:00;100491.00;;;16.80;100.00
48553;BME280;34335;51.566;6.994;2023-03-18T11:27:37;100489.09;;;17.16;100.00
48553;BME280;34335;51.566;6.994;2023-03-18T11:30:16;100485.56;;;17.17;100.00
48553;BME280;34335;51.566;6.994;2023-03-18T11:35:53;100494.22;;;16.90;100.00
48553;BME280;34335;51.566;6.994;2023-03-18T11:38:27;100496.41;;;17.06;100.00
48553;BME280;34335;51.566;6.994;2023-03-18T11:41:31;100493.91;;;17.29;100.00
48553;BME280;34335;51.566;6.994;2023-03-18T11:44:01;100491.38;;;17.26;100.00
48553;BME280;34335;51.566;6.994;2023-03-18T11:46:33;100493.81;;;17.85;100.00
48553;BME280;34335;51.566;6.994;2023-03-18T11:49:01;100489.78;;;18.01;100.00
48553;BME280;34335;51.566;6.994;2023-03-18T11:51:38;100491.09;;;17.88;100.00
48553;BME280;34335;51.566;6.994;2023-03-18T11:54:39;100486.25;;;18.02;100.00
48553;BME280;34335;51.566;6.994;2023-03-18T12:00:20;100494.56;;;17.36;96.36
48553;BME280;34335;51.566;6.994;2023-03-18T12:03:09;100498.69;;;17.70;100.00
48553;BME280;34335;51.566;6.994;2023-03-18T12:11:06;100478.75;;;17.90;85.66
48553;BME280;34335;51.566;6.994;2023-03-18T12:13:58;100483.09;;;17.91;100.00
48553;BME280;34335;51.566;6.994;2023-03-18T12:16:46;100471.25;;;18.52;97.56
48553;BME280;34335;51.566;6.994;2023-03-18T12:19:29;100480.66;;;18.59;95.30
48553;BME280;34335;51.566;6.994;2023-03-18T12:27:50;100476.59;;;19.41;89.50
48553;BME280;34335;51.566;6.994;2023-03-18T12:33:26;100481.22;;;20.18;83.30
48553;BME280;34335;51.566;6.994;2023-03-18T12:49:37;100476.94;;;19.54;94.12
48553;BME280;34335;51.566;6.994;2023-03-18T12:52:07;100473.56;;;19.50;86.00
48553;BME280;34335;51.566;6.994;2023-03-18T12:54:47;100464.09;;;19.87;84.34
48553;BME280;34335;51.566;6.994;2023-03-18T12:57:34;100456.69;;;19.34;85.67
48553;BME280;34335;51.566;6.994;2023-03-18T13:00:07;100458.84;;;19.44;84.83
48553;BME280;34335;51.566;6.994;2023-03-18T13:02:58;100461.47;;;17.83;74.33
48553;BME280;34335;51.566;6.994;2023-03-18T13:05:40;100459.19;;;19.57;84.61
48553;BME280;34335;51.566;6.994;2023-03-18T13:10:41;100446.75;;;20.80;87.37
48553;BME280;34335;51.566;6.994;2023-03-18T13:13:10;100447.09;;;21.09;79.24
48553;BME280;34335;51.566;6.994;2023-03-18T13:15:45;100443.56;;;20.53;87.44
48553;BME280;34335;51.566;6.994;2023-03-18T13:18:42;100448.00;;;20.52;81.14
48553;BME280;34335;51.566;6.994;2023-03-18T13:21:13;100436.19;;;20.98;92.63
48553;BME280;34335;51.566;6.994;2023-03-18T13:24:05;100444.84;;;20.63;75.23
48553;BME280;34335;51.566;6.994;2023-03-18T13:27:04;100449.09;;;19.46;71.79
48553;BME280;34335;51.566;6.994;2023-03-18T13:29:45;100451.00;;;19.86;78.79
48553;BME280;34335;51.566;6.994;2023-03-18T13:43:58;100448.63;;;18.92;81.18
48553;BME280;34335;51.566;6.994;2023-03-18T13:46:27;100454.00;;;18.21;74.67
48553;BME280;34335;51.566;6.994;2023-03-18T13:48:56;100447.69;;;19.17;81.20
48553;BME280;34335;51.566;6.994;2023-03-18T13:53:48;100444.50;;;19.31;92.95
48553;BME280;34335;51.566;6.994;2023-03-18T14:02:28;100439.63;;;18.76;84.77
48553;BME280;34335;51.566;6.994;2023-03-18T14:04:55;100433.34;;;18.80;84.62
48553;BME280;34335;51.566;6.994;2023-03-18T14:07:23;100437.28;;;18.46;81.14
48553;BME280;34335;51.566;6.994;2023-03-18T14:09:54;100423.09;;;18.50;93.75